sensor_id;sensor_type;location;lat;lon;timestamp;P1;durP1;ratioP1;P2;durP2;ratioP2
59006;SDS011;44792;52.760;6.726;2023-05-20T00:01:59;14.30;;;4.30;;
59006;SDS011;44792;52.760;6.726;2023-05-20T00:04:28;8.43;;;3.72;;
59006;SDS011;44792;52.760;6.726;2023-05-20T00:06:53;10.88;;;5.07;;
59006;SDS011;44792;52.760;6.726;2023-05-20T00:09:19;8.00;;;3.70;;
59006;SDS011;44792;52.760;6.726;2023-05-20T00:11:45;9.40;;;4.40;;
59006;SDS011;44792;52.760;6.726;2023-05-20T00:14:11;9.55;;;4.10;;
59006;SDS011;44792;52.760;6.726;2023-05-20T00:16:36;7.15;;;4.13;;
59006;SDS011;44792;52.760;6.726;2023-05-20T00:19:02;6.13;;;3.50;;
59006;SDS011;44792;52.760;6.726;2023-05-20T00:21:28;6.05;;;4.05;;
59006;SDS011;44792;52.760;6.726;2023-05-20T00:23:54;8.00;;;3.85;;
59006;SDS011;44792;52.760;6.726;2023-05-20T00:26:20;9.82;;;5.25;;
59006;SDS011;44792;52.760;6.726;2023-05-20T00:28:46;9.73;;;4.07;;
59006;SDS011;44792;52.760;6.726;2023-05-20T00:31:12;7.95;;;3.90;;
59006;SDS011;44792;52.760;6.726;2023-05-20T00:33:38;7.65;;;3.63;;
59006;SDS011;44792;52.760;6.726;2023-05-20T00:36:04;15.25;;;4.55;;
59006;SDS011;44792;52.760;6.726;2023-05-20T00:38:30;7.28;;;4.20;;
59006;SDS011;44792;52.760;6.726;2023-05-20T00:40:55;8.77;;;4.00;;
59006;SDS011;44792;52.760;6.726;2023-05-20T00:43:21;9.55;;;4.80;;
59006;SDS011;44792;52.760;6.726;2023-05-20T00:45:49;6.40;;;3.92;;
59006;SDS011;44792;52.760;6.726;2023-05-20T00:48:16;7.32;;;4.60;;
59006;SDS011;44792;52.760;6.726;2023-05-20T00:50:42;5.30;;;3.70;;
59006;SDS011;44792;52.760;6.726;2023-05-20T00:53:08;10.23;;;4.22;;
59006;SDS011;44792;52.760;6.726;2023-05-20T00:55:34;6.72;;;3.88;;
59006;SDS011;44792;52.760;6.726;2023-05-20T00:58:00;7.45;;;4.25;;
59006;SDS011;44792;52.760;6.726;2023-05-20T01:00:26;10.70;;;4.10;;
59006;SDS011;44792;52.760;6.726;2023-05-20T01:02:52;10.25;;;3.60;;
59006;SDS011;44792;52.760;6.726;2023-05-20T01:05:19;7.80;;;3.78;;
59006;SDS011;44792;52.760;6.726;2023-05-20T01:07:45;12.00;;;3.97;;
59006;SDS011;44792;52.760;6.726;2023-05-20T01:10:10;5.53;;;3.92;;
59006;SDS011;44792;52.760;6.726;2023-05-20T01:12:45;7.63;;;3.88;;
59006;SDS011;44792;52.760;6.726;2023-05-20T01:15:13;8.02;;;3.95;;
59006;SDS011;44792;52.760;6.726;2023-05-20T01:17:45;8.95;;;3.90;;
59006;SDS011;44792;52.760;6.726;2023-05-20T01:20:14;8.45;;;4.28;;
59006;SDS011;44792;52.760;6.726;2023-05-20T01:22:48;8.38;;;4.72;;
59006;SDS011;44792;52.760;6.726;2023-05-20T01:25:17;6.53;;;3.92;;
59006;SDS011;44792;52.760;6.726;2023-05-20T01:27:43;7.35;;;4.22;;
59006;SDS011;44792;52.760;6.726;2023-05-20T01:30:09;5.93;;;3.60;;
59006;SDS011;44792;52.760;6.726;2023-05-20T01:32:40;5.93;;;3.55;;
59006;SDS011;44792;52.760;6.726;2023-05-20T01:35:12;5.30;;;3.80;;
59006;SDS011;44792;52.760;6.726;2023-05-20T01:37:39;12.30;;;4.25;;
59006;SDS011;44792;52.760;6.726;2023-05-20T01:40:06;7.72;;;3.95;;
59006;SDS011;44792;52.760;6.726;2023-05-20T01:42:33;6.18;;;3.95;;
59006;SDS011;44792;52.760;6.726;2023-05-20T01:45:00;8.55;;;4.18;;
59006;SDS011;44792;52.760;6.726;2023-05-20T01:47:27;5.95;;;3.47;;
59006;SDS011;44792;52.760;6.726;2023-05-20T01:49:52;6.28;;;3.75;;
59006;SDS011;44792;52.760;6.726;2023-05-20T01:52:21;5.22;;;3.50;;
59006;SDS011;44792;52.760;6.726;2023-05-20T01:54:47;8.10;;;4.40;;
59006;SDS011;44792;52.760;6.726;2023-05-20T01:57:21;9.15;;;3.65;;
59006;SDS011;44792;52.760;6.726;2023-05-20T01:59:47;7.65;;;3.53;;
59006;SDS011;44792;52.760;6.726;2023-05-20T02:02:14;8.50;;;3.80;;
59006;SDS011;44792;52.760;6.726;2023-05-20T02:04:41;6.75;;;3.92;;
59006;SDS011;44792;52.760;6.726;2023-05-20T02:07:11;4.70;;;3.50;;
59006;SDS011;44792;52.760;6.726;2023-05-20T02:09:38;11.38;;;4.57;;
59006;SDS011;44792;52.760;6.726;2023-05-20T02:12:04;7.57;;;3.72;;
59006;SDS011;44792;52.760;6.726;2023-05-20T02:14:31;10.32;;;4.05;;
59006;SDS011;44792;52.760;6.726;2023-05-20T02:16:57;5.68;;;3.47;;
59006;SDS011;44792;52.760;6.726;2023-05-20T02:19:22;10.48;;;5.40;;
59006;SDS011;44792;52.760;6.726;2023-05-20T02:21:48;7.97;;;3.40;;
59006;SDS011;44792;52.760;6.726;2023-05-20T02:24:14;5.95;;;4.15;;
59006;SDS011;44792;52.760;6.726;2023-05-20T02:26:40;6.20;;;3.72;;
59006;SDS011;44792;52.760;6.726;2023-05-20T02:29:06;4.75;;;3.20;;
59006;SDS011;44792;52.760;6.726;2023-05-20T02:31:32;12.10;;;4.57;;
59006;SDS011;44792;52.760;6.726;2023-05-20T02:33:58;9.52;;;3.67;;
59006;SDS011;44792;52.760;6.726;2023-05-20T02:36:23;5.13;;;3.30;;
59006;SDS011;44792;52.760;6.726;2023-05-20T02:38:49;7.10;;;4.57;;
59006;SDS011;44792;52.760;6.726;2023-05-20T02:41:15;6.25;;;3.53;;
59006;SDS011;44792;52.760;6.726;2023-05-20T02:43:41;9.23;;;3.05;;
59006;SDS011;44792;52.760;6.726;2023-05-20T02:46:09;8.07;;;3.90;;
59006;SDS011;44792;52.760;6.726;2023-05-20T02:48:35;7.80;;;4.03;;
59006;SDS011;44792;52.760;6.726;2023-05-20T02:51:00;5.40;;;3.10;;
59006;SDS011;44792;52.760;6.726;2023-05-20T02:53:26;8.65;;;3.85;;
59006;SDS011;44792;52.760;6.726;2023-05-20T02:55:51;4.70;;;3.45;;
59006;SDS011;44792;52.760;6.726;2023-05-20T02:58:17;5.70;;;3.25;;
59006;SDS011;44792;52.760;6.726;2023-05-20T03:00:43;7.72;;;3.60;;
59006;SDS011;44792;52.760;6.726;2023-05-20T03:03:09;6.25;;;3.35;;
59006;SDS011;44792;52.760;6.726;2023-05-20T03:05:35;6.85;;;3.58;;
59006;SDS011;44792;52.760;6.726;2023-05-20T03:08:02;6.40;;;3.92;;
59006;SDS011;44792;52.760;6.726;2023-05-20T03:10:33;8.73;;;4.30;;
59006;SDS011;44792;52.760;6.726;2023-05-20T03:13:00;5.18;;;3.03;;
59006;SDS011;44792;52.760;6.726;2023-05-20T03:15:26;4.78;;;3.30;;
59006;SDS011;44792;52.760;6.726;2023-05-20T03:17:51;16.35;;;4.38;;
59006;SDS011;44792;52.760;6.726;2023-05-20T03:20:18;6.13;;;3.28;;
59006;SDS011;44792;52.760;6.726;2023-05-20T03:22:44;6.43;;;3.20;;
59006;SDS011;44792;52.760;6.726;2023-05-20T03:25:10;7.25;;;3.40;;
59006;SDS011;44792;52.760;6.726;2023-05-20T03:27:36;4.20;;;3.42;;
59006;SDS011;44792;52.760;6.726;2023-05-20T03:30:02;5.97;;;3.33;;
59006;SDS011;44792;52.760;6.726;2023-05-20T03:32:29;6.10;;;3.63;;
59006;SDS011;44792;52.760;6.726;2023-05-20T03:34:54;7.57;;;3.25;;
59006;SDS011;44792;52.760;6.726;2023-05-20T03:37:22;8.38;;;3.30;;
59006;SDS011;44792;52.760;6.726;2023-05-20T03:39:48;7.25;;;3.30;;
59006;SDS011;44792;52.760;6.726;2023-05-20T03:42:13;7.60;;;3.40;;
59006;SDS011;44792;52.760;6.726;2023-05-20T03:44:40;6.70;;;3.30;;
59006;SDS011;44792;52.760;6.726;2023-05-20T03:47:05;7.43;;;3.70;;
59006;SDS011;44792;52.760;6.726;2023-05-20T03:49:31;6.63;;;3.08;;
59006;SDS011;44792;52.760;6.726;2023-05-20T03:51:57;10.20;;;3.25;;
59006;SDS011;44792;52.760;6.726;2023-05-20T03:54:22;5.63;;;3.08;;
59006;SDS011;44792;52.760;6.726;2023-05-20T03:56:48;4.70;;;3.10;;
59006;SDS011;44792;52.760;6.726;2023-05-20T03:59:14;3.95;;;3.03;;
59006;SDS011;44792;52.760;6.726;2023-05-20T04:01:39;5.78;;;2.53;;
59006;SDS011;44792;52.760;6.726;2023-05-20T04:04:05;4.60;;;3.17;;
59006;SDS011;44792;52.760;6.726;2023-05-20T04:06:31;6.43;;;3.33;;
59006;SDS011;44792;52.760;6.726;2023-05-20T04:08:57;3.92;;;2.65;;
59006;SDS011;44792;52.760;6.726;2023-05-20T04:11:22;5.60;;;3.30;;
59006;SDS011;44792;52.760;6.726;2023-05-20T04:13:48;5.00;;;3.42;;
59006;SDS011;44792;52.760;6.726;2023-05-20T04:16:14;7.32;;;2.78;;
59006;SDS011;44792;52.760;6.726;2023-05-20T04:18:40;3.88;;;3.40;;
59006;SDS011;44792;52.760;6.726;2023-05-20T04:21:05;7.68;;;2.78;;
59006;SDS011;44792;52.760;6.726;2023-05-20T04:23:32;4.88;;;3.03;;
59006;SDS011;44792;52.760;6.726;2023-05-20T04:25:58;5.68;;;3.25;;
59006;SDS011;44792;52.760;6.726;2023-05-20T04:28:26;4.63;;;3.10;;
59006;SDS011;44792;52.760;6.726;2023-05-20T04:31:01;4.22;;;2.92;;
59006;SDS011;44792;52.760;6.726;2023-05-20T04:33:29;5.10;;;2.65;;
59006;SDS011;44792;52.760;6.726;2023-05-20T04:35:55;3.58;;;2.92;;
59006;SDS011;44792;52.760;6.726;2023-05-20T04:38:25;3.30;;;2.92;;
59006;SDS011;44792;52.760;6.726;2023-05-20T04:40:54;5.53;;;3.17;;
59006;SDS011;44792;52.760;6.726;2023-05-20T04:43:23;8.57;;;3.20;;
59006;SDS011;44792;52.760;6.726;2023-05-20T04:45:50;5.60;;;2.85;;
59006;SDS011;44792;52.760;6.726;2023-05-20T04:48:19;2.80;;;2.47;;
59006;SDS011;44792;52.760;6.726;2023-05-20T04:50:46;6.13;;;3.25;;
59006;SDS011;44792;52.760;6.726;2023-05-20T04:53:13;4.88;;;3.33;;
59006;SDS011;44792;52.760;6.726;2023-05-20T04:55:43;3.75;;;2.53;;
59006;SDS011;44792;52.760;6.726;2023-05-20T04:58:12;5.45;;;2.67;;
59006;SDS011;44792;52.760;6.726;2023-05-20T05:00:44;3.03;;;2.30;;
59006;SDS011;44792;52.760;6.726;2023-05-20T05:03:10;4.10;;;2.65;;
59006;SDS011;44792;52.760;6.726;2023-05-20T05:05:39;4.38;;;2.38;;
59006;SDS011;44792;52.760;6.726;2023-05-20T05:08:06;6.70;;;3.25;;
59006;SDS011;44792;52.760;6.726;2023-05-20T05:10:32;4.30;;;2.50;;
59006;SDS011;44792;52.760;6.726;2023-05-20T05:12:59;5.38;;;2.25;;
59006;SDS011;44792;52.760;6.726;2023-05-20T05:15:27;2.65;;;2.40;;
59006;SDS011;44792;52.760;6.726;2023-05-20T05:17:53;7.50;;;2.55;;
59006;SDS011;44792;52.760;6.726;2023-05-20T05:20:19;4.03;;;2.28;;
59006;SDS011;44792;52.760;6.726;2023-05-20T05:22:45;2.33;;;1.90;;
59006;SDS011;44792;52.760;6.726;2023-05-20T05:25:11;4.55;;;2.65;;
59006;SDS011;44792;52.760;6.726;2023-05-20T05:27:38;3.45;;;2.30;;
59006;SDS011;44792;52.760;6.726;2023-05-20T05:30:04;4.78;;;2.35;;
59006;SDS011;44792;52.760;6.726;2023-05-20T05:32:31;3.72;;;2.22;;
59006;SDS011;44792;52.760;6.726;2023-05-20T05:34:57;5.60;;;2.40;;
59006;SDS011;44792;52.760;6.726;2023-05-20T05:37:23;2.97;;;1.85;;
59006;SDS011;44792;52.760;6.726;2023-05-20T05:39:49;6.10;;;2.40;;
59006;SDS011;44792;52.760;6.726;2023-05-20T05:42:15;3.17;;;2.03;;
59006;SDS011;44792;52.760;6.726;2023-05-20T05:44:40;2.15;;;1.70;;
59006;SDS011;44792;52.760;6.726;2023-05-20T05:47:06;2.72;;;1.92;;
59006;SDS011;44792;52.760;6.726;2023-05-20T05:49:32;3.80;;;1.65;;
59006;SDS011;44792;52.760;6.726;2023-05-20T05:51:58;5.60;;;2.28;;
59006;SDS011;44792;52.760;6.726;2023-05-20T05:54:24;2.78;;;1.92;;
59006;SDS011;44792;52.760;6.726;2023-05-20T05:56:50;4.75;;;1.95;;
59006;SDS011;44792;52.760;6.726;2023-05-20T05:59:16;3.97;;;2.03;;
59006;SDS011;44792;52.760;6.726;2023-05-20T06:01:42;4.88;;;2.00;;
59006;SDS011;44792;52.760;6.726;2023-05-20T06:04:08;3.25;;;2.03;;
59006;SDS011;44792;52.760;6.726;2023-05-20T06:06:34;3.95;;;1.80;;
59006;SDS011;44792;52.760;6.726;2023-05-20T06:09:00;2.22;;;1.83;;
59006;SDS011;44792;52.760;6.726;2023-05-20T06:11:25;4.85;;;2.10;;
59006;SDS011;44792;52.760;6.726;2023-05-20T06:13:51;3.05;;;1.85;;
59006;SDS011;44792;52.760;6.726;2023-05-20T06:16:17;2.40;;;1.80;;
59006;SDS011;44792;52.760;6.726;2023-05-20T06:18:44;2.47;;;1.70;;
59006;SDS011;44792;52.760;6.726;2023-05-20T06:21:10;2.33;;;2.10;;
59006;SDS011;44792;52.760;6.726;2023-05-20T06:23:36;3.25;;;1.80;;
59006;SDS011;44792;52.760;6.726;2023-05-20T06:26:02;4.47;;;1.83;;
59006;SDS011;44792;52.760;6.726;2023-05-20T06:28:28;2.40;;;1.80;;
59006;SDS011;44792;52.760;6.726;2023-05-20T06:30:55;4.63;;;2.00;;
59006;SDS011;44792;52.760;6.726;2023-05-20T06:33:24;3.25;;;2.05;;
59006;SDS011;44792;52.760;6.726;2023-05-20T06:35:54;3.85;;;1.90;;
59006;SDS011;44792;52.760;6.726;2023-05-20T06:38:20;2.22;;;1.80;;
59006;SDS011;44792;52.760;6.726;2023-05-20T06:40:47;4.60;;;1.65;;
59006;SDS011;44792;52.760;6.726;2023-05-20T06:43:13;2.13;;;1.77;;
59006;SDS011;44792;52.760;6.726;2023-05-20T06:45:40;8.85;;;1.80;;
59006;SDS011;44792;52.760;6.726;2023-05-20T06:48:06;3.17;;;1.42;;
59006;SDS011;44792;52.760;6.726;2023-05-20T06:50:31;1.92;;;1.60;;
59006;SDS011;44792;52.760;6.726;2023-05-20T06:52:57;5.63;;;2.00;;
59006;SDS011;44792;52.760;6.726;2023-05-20T06:55:23;6.63;;;2.30;;
59006;SDS011;44792;52.760;6.726;2023-05-20T06:57:50;4.68;;;2.15;;
59006;SDS011;44792;52.760;6.726;2023-05-20T07:00:16;2.00;;;1.63;;
59006;SDS011;44792;52.760;6.726;2023-05-20T07:02:41;4.13;;;1.83;;
59006;SDS011;44792;52.760;6.726;2023-05-20T07:05:08;2.70;;;1.88;;
59006;SDS011;44792;52.760;6.726;2023-05-20T07:07:34;7.20;;;2.03;;
59006;SDS011;44792;52.760;6.726;2023-05-20T07:10:00;5.28;;;1.92;;
59006;SDS011;44792;52.760;6.726;2023-05-20T07:12:26;2.38;;;1.90;;
59006;SDS011;44792;52.760;6.726;2023-05-20T07:14:51;2.40;;;2.00;;
59006;SDS011;44792;52.760;6.726;2023-05-20T07:17:17;3.42;;;2.00;;
59006;SDS011;44792;52.760;6.726;2023-05-20T07:19:43;2.50;;;1.70;;
59006;SDS011;44792;52.760;6.726;2023-05-20T07:22:08;4.60;;;2.40;;
59006;SDS011;44792;52.760;6.726;2023-05-20T07:24:35;5.25;;;1.90;;
59006;SDS011;44792;52.760;6.726;2023-05-20T07:27:01;4.88;;;2.35;;
59006;SDS011;44792;52.760;6.726;2023-05-20T07:29:27;3.10;;;2.38;;
59006;SDS011;44792;52.760;6.726;2023-05-20T07:31:52;5.43;;;2.30;;
59006;SDS011;44792;52.760;6.726;2023-05-20T07:34:18;4.18;;;2.10;;
59006;SDS011;44792;52.760;6.726;2023-05-20T07:36:44;2.72;;;2.13;;
59006;SDS011;44792;52.760;6.726;2023-05-20T07:39:10;3.28;;;2.28;;
59006;SDS011;44792;52.760;6.726;2023-05-20T07:41:36;2.80;;;2.20;;
59006;SDS011;44792;52.760;6.726;2023-05-20T07:44:05;3.00;;;2.03;;
59006;SDS011;44792;52.760;6.726;2023-05-20T07:46:35;2.90;;;2.50;;
59006;SDS011;44792;52.760;6.726;2023-05-20T07:49:02;3.45;;;2.20;;
59006;SDS011;44792;52.760;6.726;2023-05-20T07:51:28;2.65;;;2.08;;
59006;SDS011;44792;52.760;6.726;2023-05-20T07:53:54;3.80;;;2.53;;
59006;SDS011;44792;52.760;6.726;2023-05-20T07:56:20;8.32;;;2.63;;
59006;SDS011;44792;52.760;6.726;2023-05-20T07:58:53;3.97;;;2.33;;
59006;SDS011;44792;52.760;6.726;2023-05-20T08:01:24;4.03;;;2.20;;
59006;SDS011;44792;52.760;6.726;2023-05-20T08:03:51;3.10;;;2.30;;
59006;SDS011;44792;52.760;6.726;2023-05-20T08:06:17;4.75;;;2.72;;
59006;SDS011;44792;52.760;6.726;2023-05-20T08:08:48;3.97;;;2.28;;
59006;SDS011;44792;52.760;6.726;2023-05-20T08:11:14;3.67;;;2.80;;
59006;SDS011;44792;52.760;6.726;2023-05-20T08:13:39;3.25;;;2.35;;
59006;SDS011;44792;52.760;6.726;2023-05-20T08:16:05;3.45;;;1.98;;
59006;SDS011;44792;52.760;6.726;2023-05-20T08:18:31;2.75;;;1.90;;
59006;SDS011;44792;52.760;6.726;2023-05-20T08:20:59;3.05;;;2.03;;
59006;SDS011;44792;52.760;6.726;2023-05-20T08:23:25;5.95;;;2.20;;
59006;SDS011;44792;52.760;6.726;2023-05-20T08:25:50;4.25;;;2.15;;
59006;SDS011;44792;52.760;6.726;2023-05-20T08:28:16;4.13;;;1.90;;
59006;SDS011;44792;52.760;6.726;2023-05-20T08:30:42;4.90;;;2.20;;
59006;SDS011;44792;52.760;6.726;2023-05-20T08:33:08;5.38;;;2.25;;
59006;SDS011;44792;52.760;6.726;2023-05-20T08:35:34;4.07;;;1.90;;
59006;SDS011;44792;52.760;6.726;2023-05-20T08:38:03;5.07;;;1.85;;
59006;SDS011;44792;52.760;6.726;2023-05-20T08:40:29;3.17;;;2.10;;
59006;SDS011;44792;52.760;6.726;2023-05-20T08:42:55;4.75;;;2.40;;
59006;SDS011;44792;52.760;6.726;2023-05-20T08:45:23;3.72;;;2.17;;
59006;SDS011;44792;52.760;6.726;2023-05-20T08:47:52;3.50;;;1.85;;
59006;SDS011;44792;52.760;6.726;2023-05-20T08:50:18;3.83;;;2.33;;
59006;SDS011;44792;52.760;6.726;2023-05-20T08:52:45;4.65;;;2.22;;
59006;SDS011;44792;52.760;6.726;2023-05-20T08:55:58;2.97;;;1.95;;
59006;SDS011;44792;52.760;6.726;2023-05-20T08:58:02;3.13;;;1.75;;
59006;SDS011;44792;52.760;6.726;2023-05-20T09:00:28;2.10;;;1.90;;
59006;SDS011;44792;52.760;6.726;2023-05-20T09:02:54;4.63;;;1.98;;
59006;SDS011;44792;52.760;6.726;2023-05-20T09:05:20;2.95;;;1.83;;
59006;SDS011;44792;52.760;6.726;2023-05-20T09:07:47;2.97;;;1.80;;
59006;SDS011;44792;52.760;6.726;2023-05-20T09:10:13;3.92;;;2.05;;
59006;SDS011;44792;52.760;6.726;2023-05-20T09:12:39;2.00;;;1.58;;
59006;SDS011;44792;52.760;6.726;2023-05-20T09:15:05;4.75;;;2.85;;
59006;SDS011;44792;52.760;6.726;2023-05-20T09:17:33;2.92;;;1.80;;
59006;SDS011;44792;52.760;6.726;2023-05-20T09:20:00;2.78;;;2.28;;
59006;SDS011;44792;52.760;6.726;2023-05-20T09:22:26;3.17;;;2.10;;
59006;SDS011;44792;52.760;6.726;2023-05-20T09:24:53;2.33;;;1.67;;
59006;SDS011;44792;52.760;6.726;2023-05-20T09:27:20;4.10;;;2.50;;
59006;SDS011;44792;52.760;6.726;2023-05-20T09:29:49;2.28;;;1.80;;
59006;SDS011;44792;52.760;6.726;2023-05-20T09:32:16;2.45;;;1.70;;
59006;SDS011;44792;52.760;6.726;2023-05-20T09:34:44;4.03;;;1.83;;
59006;SDS011;44792;52.760;6.726;2023-05-20T09:37:11;3.38;;;1.77;;
59006;SDS011;44792;52.760;6.726;2023-05-20T09:39:47;2.63;;;1.70;;
59006;SDS011;44792;52.760;6.726;2023-05-20T09:42:25;3.30;;;1.90;;
59006;SDS011;44792;52.760;6.726;2023-05-20T09:44:56;2.90;;;1.88;;
59006;SDS011;44792;52.760;6.726;2023-05-20T09:47:22;4.18;;;2.00;;
59006;SDS011;44792;52.760;6.726;2023-05-20T09:49:51;4.28;;;2.25;;
59006;SDS011;44792;52.760;6.726;2023-05-20T09:52:18;2.20;;;1.50;;
59006;SDS011;44792;52.760;6.726;2023-05-20T09:54:44;2.90;;;1.77;;
59006;SDS011;44792;52.760;6.726;2023-05-20T09:57:12;4.10;;;1.77;;
59006;SDS011;44792;52.760;6.726;2023-05-20T09:59:38;5.30;;;2.35;;
59006;SDS011;44792;52.760;6.726;2023-05-20T10:02:05;4.85;;;2.10;;
59006;SDS011;44792;52.760;6.726;2023-05-20T10:04:31;3.53;;;1.90;;
59006;SDS011;44792;52.760;6.726;2023-05-20T10:15:30;3.17;;;1.63;;
59006;SDS011;44792;52.760;6.726;2023-05-20T10:18:14;3.15;;;1.83;;
59006;SDS011;44792;52.760;6.726;2023-05-20T10:20:55;3.92;;;2.03;;
59006;SDS011;44792;52.760;6.726;2023-05-20T10:23:26;4.15;;;1.98;;
59006;SDS011;44792;52.760;6.726;2023-05-20T10:25:53;4.13;;;1.80;;
59006;SDS011;44792;52.760;6.726;2023-05-20T10:31:02;3.55;;;1.83;;
59006;SDS011;44792;52.760;6.726;2023-05-20T10:33:43;3.97;;;2.00;;
59006;SDS011;44792;52.760;6.726;2023-05-20T10:36:09;7.25;;;1.95;;
59006;SDS011;44792;52.760;6.726;2023-05-20T10:38:55;4.63;;;1.63;;
59006;SDS011;44792;52.760;6.726;2023-05-20T10:41:25;3.67;;;1.77;;
59006;SDS011;44792;52.760;6.726;2023-05-20T10:43:59;2.95;;;1.50;;
59006;SDS011;44792;52.760;6.726;2023-05-20T10:46:28;3.17;;;1.42;;
59006;SDS011;44792;52.760;6.726;2023-05-20T10:48:55;1.95;;;1.35;;
59006;SDS011;44792;52.760;6.726;2023-05-20T11:12:48;2.75;;;1.45;;
59006;SDS011;44792;52.760;6.726;2023-05-20T11:15:14;2.67;;;1.70;;
59006;SDS011;44792;52.760;6.726;2023-05-20T11:17:50;2.35;;;1.52;;
59006;SDS011;44792;52.760;6.726;2023-05-20T11:20:19;4.45;;;1.83;;
59006;SDS011;44792;52.760;6.726;2023-05-20T11:22:48;5.07;;;1.73;;
59006;SDS011;44792;52.760;6.726;2023-05-20T11:25:15;3.13;;;1.60;;
59006;SDS011;44792;52.760;6.726;2023-05-20T11:27:42;2.78;;;1.60;;
59006;SDS011;44792;52.760;6.726;2023-05-20T11:30:08;2.22;;;1.30;;
59006;SDS011;44792;52.760;6.726;2023-05-20T11:32:36;2.83;;;1.60;;
59006;SDS011;44792;52.760;6.726;2023-05-20T11:35:01;3.58;;;1.60;;
59006;SDS011;44792;52.760;6.726;2023-05-20T11:37:28;2.22;;;1.48;;
59006;SDS011;44792;52.760;6.726;2023-05-20T11:40:04;3.65;;;1.58;;
59006;SDS011;44792;52.760;6.726;2023-05-20T11:42:32;3.33;;;1.60;;
59006;SDS011;44792;52.760;6.726;2023-05-20T11:45:01;5.13;;;1.70;;
59006;SDS011;44792;52.760;6.726;2023-05-20T11:47:27;3.13;;;1.80;;
59006;SDS011;44792;52.760;6.726;2023-05-20T11:49:53;2.20;;;1.90;;
59006;SDS011;44792;52.760;6.726;2023-05-20T11:52:20;5.30;;;1.63;;
59006;SDS011;44792;52.760;6.726;2023-05-20T11:54:52;4.53;;;1.90;;
59006;SDS011;44792;52.760;6.726;2023-05-20T11:57:18;6.13;;;1.83;;
59006;SDS011;44792;52.760;6.726;2023-05-20T11:59:45;2.03;;;1.67;;
59006;SDS011;44792;52.760;6.726;2023-05-20T12:02:11;2.47;;;1.70;;
59006;SDS011;44792;52.760;6.726;2023-05-20T12:04:39;5.50;;;1.70;;
59006;SDS011;44792;52.760;6.726;2023-05-20T12:07:05;5.10;;;1.70;;
59006;SDS011;44792;52.760;6.726;2023-05-20T12:09:33;3.30;;;1.52;;
59006;SDS011;44792;52.760;6.726;2023-05-20T12:11:59;2.70;;;1.90;;
59006;SDS011;44792;52.760;6.726;2023-05-20T12:14:25;3.90;;;1.58;;
59006;SDS011;44792;52.760;6.726;2023-05-20T12:16:51;8.15;;;1.92;;
59006;SDS011;44792;52.760;6.726;2023-05-20T12:19:17;1.40;;;1.25;;
59006;SDS011;44792;52.760;6.726;2023-05-20T12:21:46;3.00;;;1.75;;
59006;SDS011;44792;52.760;6.726;2023-05-20T12:24:11;4.32;;;1.90;;
59006;SDS011;44792;52.760;6.726;2023-05-20T12:26:37;7.95;;;2.03;;
59006;SDS011;44792;52.760;6.726;2023-05-20T12:29:04;3.60;;;1.75;;
59006;SDS011;44792;52.760;6.726;2023-05-20T12:31:30;2.88;;;1.67;;
59006;SDS011;44792;52.760;6.726;2023-05-20T12:33:55;5.05;;;1.70;;
59006;SDS011;44792;52.760;6.726;2023-05-20T12:36:21;3.13;;;1.48;;
59006;SDS011;44792;52.760;6.726;2023-05-20T12:38:47;1.63;;;1.27;;
59006;SDS011;44792;52.760;6.726;2023-05-20T12:41:13;2.20;;;1.55;;
59006;SDS011;44792;52.760;6.726;2023-05-20T12:43:38;2.35;;;1.65;;
59006;SDS011;44792;52.760;6.726;2023-05-20T12:46:04;2.90;;;1.70;;
59006;SDS011;44792;52.760;6.726;2023-05-20T12:48:30;3.60;;;1.63;;
59006;SDS011;44792;52.760;6.726;2023-05-20T12:50:56;4.65;;;2.22;;
59006;SDS011;44792;52.760;6.726;2023-05-20T12:53:21;3.05;;;1.70;;
59006;SDS011;44792;52.760;6.726;2023-05-20T12:55:47;3.35;;;1.40;;
59006;SDS011;44792;52.760;6.726;2023-05-20T12:58:13;3.45;;;1.75;;
59006;SDS011;44792;52.760;6.726;2023-05-20T13:00:38;3.17;;;1.30;;
59006;SDS011;44792;52.760;6.726;2023-05-20T13:03:04;4.20;;;1.45;;
59006;SDS011;44792;52.760;6.726;2023-05-20T13:05:30;12.15;;;2.33;;
59006;SDS011;44792;52.760;6.726;2023-05-20T13:07:56;4.38;;;1.90;;
59006;SDS011;44792;52.760;6.726;2023-05-20T13:10:22;4.10;;;1.52;;
59006;SDS011;44792;52.760;6.726;2023-05-20T13:12:47;2.63;;;1.50;;
59006;SDS011;44792;52.760;6.726;2023-05-20T13:15:13;6.10;;;1.58;;
59006;SDS011;44792;52.760;6.726;2023-05-20T13:17:39;5.93;;;1.92;;
59006;SDS011;44792;52.760;6.726;2023-05-20T13:20:06;3.63;;;1.30;;
59006;SDS011;44792;52.760;6.726;2023-05-20T13:22:32;3.13;;;1.20;;
59006;SDS011;44792;52.760;6.726;2023-05-20T13:24:59;3.78;;;1.52;;
59006;SDS011;44792;52.760;6.726;2023-05-20T13:27:25;6.28;;;1.63;;
59006;SDS011;44792;52.760;6.726;2023-05-20T13:29:50;5.55;;;1.60;;
59006;SDS011;44792;52.760;6.726;2023-05-20T13:32:16;3.17;;;1.70;;
59006;SDS011;44792;52.760;6.726;2023-05-20T13:34:42;4.30;;;1.48;;
59006;SDS011;44792;52.760;6.726;2023-05-20T13:37:08;3.80;;;1.40;;
59006;SDS011;44792;52.760;6.726;2023-05-20T13:39:33;3.65;;;1.50;;
59006;SDS011;44792;52.760;6.726;2023-05-20T13:42:00;4.90;;;1.98;;
59006;SDS011;44792;52.760;6.726;2023-05-20T13:44:26;1.98;;;1.30;;
59006;SDS011;44792;52.760;6.726;2023-05-20T13:46:51;2.97;;;1.70;;
59006;SDS011;44792;52.760;6.726;2023-05-20T13:49:17;2.35;;;1.52;;
59006;SDS011;44792;52.760;6.726;2023-05-20T13:51:43;3.17;;;1.10;;
59006;SDS011;44792;52.760;6.726;2023-05-20T13:54:09;4.65;;;1.73;;
59006;SDS011;44792;52.760;6.726;2023-05-20T13:56:38;2.13;;;1.40;;
59006;SDS011;44792;52.760;6.726;2023-05-20T13:59:04;5.18;;;1.85;;
59006;SDS011;44792;52.760;6.726;2023-05-20T14:01:30;1.73;;;1.00;;
59006;SDS011;44792;52.760;6.726;2023-05-20T14:03:58;1.55;;;1.33;;
59006;SDS011;44792;52.760;6.726;2023-05-20T14:06:25;2.42;;;1.40;;
59006;SDS011;44792;52.760;6.726;2023-05-20T14:08:52;3.72;;;1.80;;
59006;SDS011;44792;52.760;6.726;2023-05-20T14:11:19;4.88;;;1.88;;
59006;SDS011;44792;52.760;6.726;2023-05-20T14:13:45;2.92;;;1.30;;
59006;SDS011;44792;52.760;6.726;2023-05-20T14:16:11;3.45;;;1.20;;
59006;SDS011;44792;52.760;6.726;2023-05-20T14:18:37;2.10;;;1.75;;
59006;SDS011;44792;52.760;6.726;2023-05-20T14:21:03;3.08;;;1.50;;
59006;SDS011;44792;52.760;6.726;2023-05-20T14:23:28;2.47;;;1.50;;
59006;SDS011;44792;52.760;6.726;2023-05-20T14:25:54;2.45;;;1.23;;
59006;SDS011;44792;52.760;6.726;2023-05-20T14:28:20;4.20;;;1.60;;
59006;SDS011;44792;52.760;6.726;2023-05-20T14:30:45;2.53;;;1.52;;
59006;SDS011;44792;52.760;6.726;2023-05-20T14:33:11;1.88;;;1.10;;
59006;SDS011;44792;52.760;6.726;2023-05-20T14:35:37;5.03;;;1.85;;
59006;SDS011;44792;52.760;6.726;2023-05-20T14:38:02;2.45;;;1.52;;
59006;SDS011;44792;52.760;6.726;2023-05-20T14:40:28;3.10;;;1.98;;
59006;SDS011;44792;52.760;6.726;2023-05-20T14:42:54;5.63;;;1.30;;
59006;SDS011;44792;52.760;6.726;2023-05-20T14:45:20;3.90;;;1.50;;
59006;SDS011;44792;52.760;6.726;2023-05-20T14:47:45;2.20;;;1.55;;
59006;SDS011;44792;52.760;6.726;2023-05-20T14:50:11;1.83;;;1.55;;
59006;SDS011;44792;52.760;6.726;2023-05-20T14:52:37;2.97;;;1.45;;
59006;SDS011;44792;52.760;6.726;2023-05-20T14:55:02;4.03;;;1.60;;
59006;SDS011;44792;52.760;6.726;2023-05-20T14:57:29;2.25;;;1.50;;
59006;SDS011;44792;52.760;6.726;2023-05-20T14:59:54;3.55;;;1.40;;
59006;SDS011;44792;52.760;6.726;2023-05-20T15:02:20;2.35;;;1.48;;
59006;SDS011;44792;52.760;6.726;2023-05-20T15:04:46;5.45;;;1.90;;
59006;SDS011;44792;52.760;6.726;2023-05-20T15:07:15;2.38;;;1.48;;
59006;SDS011;44792;52.760;6.726;2023-05-20T15:09:41;6.28;;;1.80;;
59006;SDS011;44792;52.760;6.726;2023-05-20T15:12:08;3.42;;;1.83;;
59006;SDS011;44792;52.760;6.726;2023-05-20T15:14:35;2.08;;;1.58;;
59006;SDS011;44792;52.760;6.726;2023-05-20T15:17:01;3.90;;;2.08;;
59006;SDS011;44792;52.760;6.726;2023-05-20T15:19:28;6.03;;;1.88;;